createdAt,value
2022-09-10T00:00:08.982Z,95.21
2022-09-10T00:02:40.728Z,94.91
2022-09-10T00:05:13.044Z,94.96
2022-09-10T00:07:44.717Z,94.64
2022-09-10T00:10:18.544Z,95.20
2022-09-10T00:12:51.154Z,95.20
2022-09-10T00:15:22.830Z,95.31
2022-09-10T00:17:54.196Z,95.45
2022-09-10T00:20:26.968Z,95.68
2022-09-10T00:22:58.310Z,95.67
2022-09-10T00:25:32.229Z,96.13
2022-09-10T00:28:03.579Z,95.79
2022-09-10T00:30:40.961Z,96.37
2022-09-10T00:33:14.114Z,96.40
2022-09-10T00:35:46.597Z,96.41
2022-09-10T00:38:18.477Z,96.26
2022-09-10T00:40:49.867Z,96.28
2022-09-10T00:43:22.176Z,96.15
2022-09-10T00:45:55.335Z,96.41
2022-09-10T00:48:32.257Z,96.41
2022-09-10T00:51:05.931Z,96.40
2022-09-10T00:53:37.459Z,96.19
2022-09-10T00:56:09.049Z,96.73
2022-09-10T00:58:41.360Z,96.82
2022-09-10T01:01:13.469Z,96.56
2022-09-10T01:03:46.200Z,96.33
2022-09-10T01:06:18.373Z,96.55
2022-09-10T01:08:49.721Z,96.49
2022-09-10T01:11:37.773Z,96.15
2022-09-10T01:14:47.257Z,96.60
2022-09-10T01:17:37.054Z,96.54
2022-09-10T01:20:35.077Z,96.49
2022-09-10T01:23:27.999Z,96.30
2022-09-10T01:26:25.013Z,96.33
2022-09-10T01:29:02.363Z,96.31
2022-09-10T01:31:51.765Z,96.65
2022-09-10T01:34:51.043Z,96.75
2022-09-10T01:37:29.372Z,96.41
2022-09-10T01:40:03.154Z,96.72
2022-09-10T01:42:38.387Z,96.72
2022-09-10T01:45:13.992Z,96.68
2022-09-10T01:48:19.290Z,96.84
2022-09-10T01:51:08.762Z,96.51
2022-09-10T01:54:18.757Z,96.85
2022-09-10T01:57:04.181Z,96.57
2022-09-10T01:59:44.588Z,96.97
2022-09-10T02:02:23.916Z,96.64
2022-09-10T02:04:57.420Z,97.03
2022-09-10T02:07:32.028Z,96.71
2022-09-10T02:10:06.645Z,96.74
2022-09-10T02:12:39.942Z,96.80
2022-09-10T02:15:12.014Z,96.42
2022-09-10T02:17:46.556Z,96.51
2022-09-10T02:20:19.695Z,96.37
2022-09-10T02:22:56.849Z,97.01
2022-09-10T02:25:33.556Z,96.88
2022-09-10T02:28:06.069Z,96.31
2022-09-10T02:30:37.733Z,96.79
2022-09-10T02:33:09.077Z,96.81
2022-09-10T02:35:40.383Z,96.39
2022-09-10T02:38:11.733Z,96.78
2022-09-10T02:40:43.222Z,96.69
2022-09-10T02:43:15.544Z,96.72
2022-09-10T02:45:46.983Z,96.65
2022-09-10T02:48:18.316Z,97.08
2022-09-10T02:50:49.679Z,96.81
2022-09-10T02:53:21.285Z,96.60
2022-09-10T02:55:52.856Z,96.56
2022-09-10T02:58:24.286Z,96.69
2022-09-10T03:01:05.911Z,96.47
2022-09-10T03:03:37.678Z,96.66
2022-09-10T03:06:09.638Z,96.57
2022-09-10T03:08:41.015Z,96.48
2022-09-10T03:11:15.296Z,96.16
2022-09-10T03:13:46.624Z,96.21
2022-09-10T03:16:19.024Z,95.93
2022-09-10T03:18:51.933Z,96.44
2022-09-10T03:21:25.102Z,96.02
2022-09-10T03:23:57.214Z,95.97
2022-09-10T03:26:28.722Z,95.83
2022-09-10T03:29:00.094Z,95.71
2022-09-10T03:31:32.041Z,95.92
2022-09-10T03:34:04.099Z,95.93
2022-09-10T03:36:35.593Z,95.93
2022-09-10T03:39:06.920Z,95.83
2022-09-10T03:41:38.293Z,96.02
2022-09-10T03:44:10.231Z,96.21
2022-09-10T03:46:41.520Z,96.20
2022-09-10T03:49:12.849Z,96.16
2022-09-10T03:51:44.216Z,96.09
2022-09-10T03:54:15.800Z,96.03
2022-09-10T03:56:47.113Z,96.29
2022-09-10T03:59:18.639Z,96.50
2022-09-10T04:01:50.627Z,96.41
2022-09-10T04:04:22.074Z,96.48
2022-09-10T04:06:53.769Z,96.69
2022-09-10T04:09:25.202Z,96.81
2022-09-10T04:11:56.853Z,96.67
2022-09-10T04:14:28.213Z,96.78
2022-09-10T04:16:59.581Z,96.84
2022-09-10T04:19:30.939Z,96.75
2022-09-10T04:22:03.017Z,97.01
2022-09-10T04:24:34.404Z,96.69
2022-09-10T04:27:06.301Z,96.54
2022-09-10T04:29:38.074Z,97.11
2022-09-10T04:32:09.466Z,96.89
2022-09-10T04:34:41.105Z,97.13
2022-09-10T04:37:16.186Z,96.64
2022-09-10T04:39:51.066Z,97.18
2022-09-10T04:42:22.790Z,97.00
2022-09-10T04:44:54.323Z,96.94
2022-09-10T04:47:25.845Z,96.99
2022-09-10T04:49:57.471Z,97.11
2022-09-10T04:52:28.979Z,96.83
2022-09-10T04:55:00.342Z,97.10
2022-09-10T04:57:31.685Z,97.05
2022-09-10T05:00:07.679Z,96.95
2022-09-10T05:02:39.281Z,96.80
2022-09-10T05:05:10.618Z,96.79
2022-09-10T05:07:42.085Z,96.97
2022-09-10T05:10:15.211Z,97.03
2022-09-10T05:12:48.010Z,97.07
2022-09-10T05:15:19.396Z,97.25
2022-09-10T05:17:51.639Z,97.34
2022-09-10T05:20:23.106Z,97.35
2022-09-10T05:22:54.908Z,97.33
2022-09-10T05:25:27.730Z,96.86
2022-09-10T05:28:01.048Z,97.50
2022-09-10T05:30:32.634Z,97.39
2022-09-10T05:33:04.407Z,97.10
2022-09-10T05:35:35.847Z,97.32
2022-09-10T05:38:08.234Z,97.46
2022-09-10T05:40:42.154Z,97.37
2022-09-10T05:43:13.433Z,97.42
2022-09-10T05:45:44.882Z,97.55
2022-09-10T05:48:16.321Z,97.30
2022-09-10T05:50:47.728Z,97.25
2022-09-10T05:53:19.078Z,97.30
2022-09-10T05:55:50.570Z,97.74
2022-09-10T05:58:21.934Z,97.93
2022-09-10T06:00:58.119Z,97.65
2022-09-10T06:03:29.535Z,97.93
2022-09-10T06:06:00.906Z,97.66
2022-09-10T06:08:32.305Z,97.77
2022-09-10T06:11:05.861Z,97.66
2022-09-10T06:13:39.573Z,97.61
2022-09-10T06:16:11.830Z,97.20
2022-09-10T06:18:44.032Z,97.50
2022-09-10T06:21:18.283Z,97.56
2022-09-10T06:23:53.547Z,97.54
2022-09-10T06:26:25.550Z,97.76
2022-09-10T06:28:56.950Z,97.71
2022-09-10T06:31:28.771Z,97.81
2022-09-10T06:34:01.579Z,97.21
2022-09-10T06:36:33.880Z,97.32
2022-09-10T06:39:07.040Z,97.61
2022-09-10T06:41:39.286Z,97.67
2022-09-10T06:44:10.909Z,97.45
2022-09-10T06:49:36.540Z,97.43
2022-09-10T06:52:08.076Z,97.31
2022-09-10T06:54:39.743Z,97.51
2022-09-10T06:57:11.343Z,97.43
2022-09-10T06:59:43.670Z,97.49
2022-09-10T07:02:15.253Z,97.40
2022-09-10T07:04:46.628Z,97.36
2022-09-10T07:07:17.975Z,97.08
2022-09-10T07:09:49.271Z,97.05
2022-09-10T07:12:21.284Z,96.85
2022-09-10T07:14:52.766Z,96.77
2022-09-10T07:17:24.057Z,96.13
2022-09-10T07:19:55.622Z,96.17
2022-09-10T07:22:26.985Z,95.69
2022-09-10T07:24:59.285Z,95.81
2022-09-10T07:27:30.673Z,95.73
2022-09-10T07:30:02.009Z,95.74
2022-09-10T07:32:33.667Z,96.35
2022-09-10T07:35:07.402Z,95.47
2022-09-10T07:37:39.220Z,95.39
2022-09-10T07:40:10.708Z,95.33
2022-09-10T07:42:44.091Z,95.14
2022-09-10T07:45:16.136Z,94.97
2022-09-10T07:47:48.669Z,94.77
2022-09-10T07:50:20.291Z,95.09
2022-09-10T07:52:52.680Z,95.09
2022-09-10T07:55:24.188Z,94.51
2022-09-10T07:57:59.874Z,94.71
2022-09-10T08:00:31.744Z,94.84
2022-09-10T08:03:03.203Z,95.27
2022-09-10T08:05:37.140Z,95.76
2022-09-10T08:08:10.419Z,95.50
2022-09-10T08:10:42.155Z,95.72
2022-09-10T08:13:13.440Z,95.61
2022-09-10T08:15:45.082Z,96.30
2022-09-10T08:18:17.151Z,95.79
2022-09-10T08:20:54.594Z,95.51
2022-09-10T08:23:25.945Z,94.58
2022-09-10T08:25:58.274Z,94.72
2022-09-10T08:28:29.847Z,95.20
2022-09-10T08:31:07.673Z,93.95
2022-09-10T08:33:40.084Z,94.19
2022-09-10T08:36:13.893Z,94.36
2022-09-10T08:38:46.157Z,94.73
2022-09-10T08:41:49.475Z,94.66
2022-09-10T08:44:34.660Z,94.59
2022-09-10T08:47:25.025Z,93.21
2022-09-10T08:50:24.632Z,93.47
2022-09-10T08:53:23.007Z,92.54
2022-09-10T08:55:58.381Z,92.03
2022-09-10T08:58:45.173Z,92.67
2022-09-10T09:01:43.403Z,92.30
2022-09-10T09:04:34.080Z,92.42
2022-09-10T09:07:14.478Z,93.22
2022-09-10T09:09:51.227Z,92.17
2022-09-10T09:12:58.900Z,92.17
2022-09-10T09:15:39.143Z,92.03
2022-09-10T09:18:20.304Z,92.33
2022-09-10T09:20:56.340Z,92.74
2022-09-10T09:23:48.058Z,92.90
2022-09-10T09:26:36.168Z,92.98
2022-09-10T09:29:18.992Z,92.27
2022-09-10T09:31:57.792Z,91.63
2022-09-10T09:34:39.533Z,91.56
2022-09-10T09:37:17.371Z,91.48
2022-09-10T09:40:07.159Z,91.14
2022-09-10T09:42:53.574Z,91.53
2022-09-10T09:45:37.410Z,92.27
2022-09-10T09:48:13.526Z,92.73
2022-09-10T09:50:51.380Z,91.62
2022-09-10T09:53:27.659Z,90.91
2022-09-10T09:56:01.845Z,90.18
2022-09-10T09:58:35.587Z,89.94
2022-09-10T10:01:10.420Z,90.09
2022-09-10T10:03:54.462Z,89.58
2022-09-10T10:06:45.916Z,89.88
2022-09-10T10:09:22.692Z,89.65
2022-09-10T10:12:05.860Z,89.80
2022-09-10T10:14:44.615Z,90.20
2022-09-10T10:17:32.400Z,89.91
2022-09-10T10:20:07.220Z,89.65
2022-09-10T10:22:48.651Z,89.21
2022-09-10T10:25:41.228Z,88.43
2022-09-10T10:28:22.675Z,88.70
2022-09-10T10:30:59.136Z,88.71
2022-09-10T10:33:33.453Z,88.01
2022-09-10T10:36:18.714Z,87.83
2022-09-10T10:39:02.187Z,87.75
2022-09-10T10:41:41.622Z,88.25
2022-09-10T10:44:32.333Z,87.99
2022-09-10T10:47:27.316Z,87.09
2022-09-10T10:50:19.456Z,87.39
2022-09-10T10:53:13.000Z,86.64
2022-09-10T10:55:53.349Z,86.23
2022-09-10T10:58:54.424Z,84.72
2022-09-10T11:01:30.078Z,86.17
2022-09-10T11:04:27.471Z,84.14
2022-09-10T11:07:18.464Z,84.14
2022-09-10T11:10:29.757Z,84.69
2022-09-10T11:13:13.010Z,85.51
2022-09-10T11:15:52.296Z,83.95
2022-09-10T11:18:46.037Z,83.69
2022-09-10T11:21:29.738Z,84.28
2022-09-10T11:24:19.950Z,83.82
2022-09-10T11:27:05.546Z,83.66
2022-09-10T11:29:45.784Z,83.98
2022-09-10T11:32:27.426Z,83.96
2022-09-10T11:35:15.320Z,84.30
2022-09-10T11:38:22.293Z,83.80
2022-09-10T11:41:13.205Z,84.82
2022-09-10T11:44:10.598Z,85.73
2022-09-10T11:47:06.416Z,85.22
2022-09-10T11:50:16.378Z,84.34
2022-09-10T11:52:47.935Z,84.15
2022-09-10T11:55:19.432Z,83.50
2022-09-10T11:58:11.538Z,83.59
2022-09-10T12:00:58.940Z,83.56
2022-09-10T12:04:05.956Z,84.12
2022-09-10T12:06:52.183Z,84.53
2022-09-10T12:09:29.525Z,86.00
2022-09-10T12:12:18.994Z,86.74
2022-09-10T12:14:50.761Z,86.46
2022-09-10T12:17:36.776Z,87.11
2022-09-10T12:20:34.134Z,88.08
2022-09-10T12:23:06.492Z,88.92
2022-09-10T12:25:38.513Z,89.42
2022-09-10T12:28:41.812Z,90.22
2022-09-10T12:31:15.631Z,89.95
2022-09-10T12:33:46.985Z,90.82
2022-09-10T12:36:27.728Z,91.05
2022-09-10T12:39:22.462Z,92.14
2022-09-10T12:41:55.700Z,92.49
2022-09-10T12:44:42.821Z,93.05
2022-09-10T12:47:17.272Z,93.81
2022-09-10T12:49:53.144Z,92.82
2022-09-10T12:52:42.975Z,93.61
2022-09-10T12:55:40.858Z,93.27
2022-09-10T12:58:43.943Z,94.29
2022-09-10T13:01:40.245Z,94.40
2022-09-10T13:04:34.702Z,94.04
2022-09-10T13:07:21.416Z,93.26
2022-09-10T13:10:00.034Z,93.52
2022-09-10T13:12:35.735Z,92.88
2022-09-10T13:15:16.368Z,93.57
2022-09-10T13:17:47.651Z,94.00
2022-09-10T13:20:31.824Z,93.19
2022-09-10T13:23:09.153Z,93.39
2022-09-10T13:25:51.335Z,93.36
2022-09-10T13:28:28.786Z,93.64
2022-09-10T13:31:04.339Z,94.53
2022-09-10T13:33:52.404Z,94.24
2022-09-10T13:36:48.006Z,93.94
2022-09-10T13:39:44.090Z,94.46
2022-09-10T13:42:49.093Z,94.82
2022-09-10T13:45:30.398Z,94.77
2022-09-10T13:48:15.102Z,94.81
2022-09-10T13:51:05.814Z,94.98
2022-09-10T13:53:43.667Z,95.21
2022-09-10T13:56:27.523Z,95.64
2022-09-10T13:59:03.039Z,95.21
2022-09-10T14:01:53.932Z,95.27
2022-09-10T14:04:31.959Z,95.17
2022-09-10T14:07:22.806Z,95.22
2022-09-10T14:09:59.694Z,95.12
2022-09-10T14:12:34.502Z,94.93
2022-09-10T14:15:07.131Z,95.42
2022-09-10T14:17:45.021Z,94.98
2022-09-10T14:20:27.457Z,94.79
2022-09-10T14:23:02.333Z,95.08
2022-09-10T14:25:36.589Z,94.97
2022-09-10T14:28:27.660Z,95.67
2022-09-10T14:31:22.773Z,95.98
2022-09-10T14:33:55.822Z,95.71
2022-09-10T14:36:27.620Z,95.21
2022-09-10T14:39:06.755Z,95.33
2022-09-10T14:41:38.116Z,96.08
2022-09-10T14:44:20.370Z,95.94
2022-09-10T14:46:58.294Z,95.38
2022-09-10T14:49:34.624Z,94.46
2022-09-10T14:52:07.716Z,94.65
2022-09-10T14:54:39.150Z,95.45
2022-09-10T14:57:14.626Z,94.31
2022-09-10T14:59:46.404Z,94.19
2022-09-10T15:02:26.540Z,93.87
2022-09-10T15:04:57.959Z,93.83
2022-09-10T15:07:29.300Z,93.47
2022-09-10T15:10:01.575Z,93.88
2022-09-10T15:12:33.592Z,93.72
2022-09-10T15:15:05.739Z,94.33
2022-09-10T15:17:37.283Z,94.19
2022-09-10T15:20:17.456Z,94.04
2022-09-10T15:22:49.164Z,93.80
2022-09-10T15:25:33.889Z,93.68
2022-09-10T15:28:10.177Z,93.41
2022-09-10T15:30:41.618Z,93.49
2022-09-10T15:33:14.572Z,92.79
2022-09-10T15:35:47.168Z,92.99
2022-09-10T15:38:21.312Z,92.09
2022-09-10T15:41:05.598Z,92.05
2022-09-10T15:43:39.694Z,91.61
2022-09-10T15:46:13.297Z,91.83
2022-09-10T15:48:47.353Z,92.18
2022-09-10T15:51:21.478Z,90.90
2022-09-10T15:53:53.962Z,90.90
2022-09-10T15:56:28.324Z,90.68
2022-09-10T15:58:59.750Z,90.27
2022-09-10T16:01:32.106Z,89.75
2022-09-10T16:04:04.643Z,90.01
2022-09-10T16:06:39.222Z,89.99
2022-09-10T16:09:12.825Z,90.15
2022-09-10T16:11:44.664Z,89.42
2022-09-10T16:14:16.709Z,90.05
2022-09-10T16:16:50.879Z,89.27
2022-09-10T16:19:23.211Z,89.71
2022-09-10T16:21:54.604Z,89.50
2022-09-10T16:24:25.931Z,89.96
2022-09-10T16:26:57.405Z,89.89
2022-09-10T16:29:28.793Z,90.46
2022-09-10T16:32:00.207Z,90.02
2022-09-10T16:34:31.578Z,90.19
2022-09-10T16:37:03.438Z,89.92
2022-09-10T16:39:34.790Z,89.85
2022-09-10T16:42:06.287Z,90.06
2022-09-10T16:44:37.614Z,90.10
2022-09-10T16:47:09.042Z,90.50
2022-09-10T16:49:40.352Z,90.30
2022-09-10T16:52:12.094Z,90.24
2022-09-10T16:54:45.968Z,90.37
2022-09-10T16:57:17.558Z,90.54
2022-09-10T16:59:49.218Z,90.61
2022-09-10T17:02:20.584Z,90.79
2022-09-10T17:04:52.457Z,90.95
2022-09-10T17:07:23.915Z,90.75
2022-09-10T17:10:00.103Z,90.91
2022-09-10T17:12:32.179Z,90.87
2022-09-10T17:15:03.884Z,91.03
2022-09-10T17:17:35.183Z,91.17
2022-09-10T17:20:07.345Z,91.07
2022-09-10T17:22:38.644Z,91.16
2022-09-10T17:25:10.011Z,91.19
2022-09-10T17:27:41.365Z,90.54
2022-09-10T17:30:12.872Z,90.58
2022-09-10T17:32:44.181Z,90.89
2022-09-10T17:35:15.526Z,90.91
2022-09-10T17:37:47.513Z,91.01
2022-09-10T17:40:20.043Z,91.07
2022-09-10T17:42:51.370Z,91.21
2022-09-10T17:45:22.800Z,91.56
2022-09-10T17:47:54.183Z,91.53
2022-09-10T17:50:25.504Z,91.21
2022-09-10T17:52:57.391Z,91.45
2022-09-10T17:55:33.473Z,91.56
2022-09-10T17:58:05.205Z,91.71
2022-09-10T18:00:40.578Z,91.76
2022-09-10T18:03:12.427Z,91.73
2022-09-10T18:05:45.028Z,92.04
2022-09-10T18:08:16.470Z,92.00
2022-09-10T18:10:48.574Z,91.91
2022-09-10T18:13:20.807Z,92.27
2022-09-10T18:15:52.421Z,91.84
2022-09-10T18:18:23.742Z,92.21
2022-09-10T18:20:56.336Z,91.96
2022-09-10T18:23:27.685Z,92.37
2022-09-10T18:25:59.423Z,92.11
2022-09-10T18:28:30.694Z,92.27
2022-09-10T18:31:03.497Z,92.26
2022-09-10T18:33:40.595Z,92.52
2022-09-10T18:36:17.775Z,92.29
2022-09-10T18:38:49.078Z,92.11
2022-09-10T18:41:25.930Z,92.69
2022-09-10T18:44:00.680Z,92.81
2022-09-10T18:46:33.037Z,92.77
2022-09-10T18:49:05.159Z,92.65
2022-09-10T18:51:36.435Z,92.74
2022-09-10T18:54:09.027Z,92.72
2022-09-10T18:56:41.512Z,92.78
2022-09-10T18:59:15.486Z,92.76
2022-09-10T19:01:48.377Z,93.00
2022-09-10T19:04:23.667Z,92.94
2022-09-10T19:06:56.312Z,92.97
2022-09-10T19:09:30.175Z,93.14
2022-09-10T19:12:02.365Z,93.50
2022-09-10T19:14:35.661Z,93.47
2022-09-10T19:17:07.001Z,93.45
2022-09-10T19:19:38.424Z,93.54
2022-09-10T19:22:10.583Z,93.55
2022-09-10T19:24:54.579Z,93.84
2022-09-10T19:27:26.689Z,93.73
2022-09-10T19:29:58.093Z,93.85
2022-09-10T19:32:29.545Z,94.10
2022-09-10T19:35:01.195Z,93.99
2022-09-10T19:37:32.519Z,93.96
2022-09-10T19:40:04.237Z,94.23
2022-09-10T19:42:35.582Z,94.48
2022-09-10T19:45:10.179Z,94.49
2022-09-10T19:47:42.905Z,94.12
2022-09-10T19:50:14.390Z,93.91
2022-09-10T19:52:45.795Z,94.14
2022-09-10T19:55:18.044Z,93.82
2022-09-10T19:57:50.278Z,93.93
2022-09-10T20:00:43.418Z,94.04
2022-09-10T20:03:14.117Z,94.01
2022-09-10T20:05:46.151Z,93.50
2022-09-10T20:08:17.450Z,94.27
2022-09-10T20:10:51.833Z,94.06
2022-09-10T20:13:23.369Z,94.06
2022-09-10T20:15:56.082Z,93.98
2022-09-10T20:18:28.544Z,93.95
2022-09-10T20:21:13.994Z,93.92
2022-09-10T20:23:47.843Z,93.78
2022-09-10T20:26:31.621Z,93.78
2022-09-10T20:29:06.090Z,93.88
2022-09-10T20:31:40.921Z,93.66
2022-09-10T20:34:15.334Z,93.58
2022-09-10T20:36:48.146Z,93.75
2022-09-10T20:39:21.891Z,93.74
2022-09-10T20:41:53.582Z,93.99
2022-09-10T20:44:25.865Z,93.82
2022-09-10T20:46:57.220Z,94.13
2022-09-10T20:49:28.703Z,94.21
2022-09-10T20:52:00.077Z,93.60
2022-09-10T20:54:31.392Z,93.41
2022-09-10T20:57:02.936Z,93.95
2022-09-10T20:59:34.532Z,94.04
2022-09-10T21:02:06.761Z,93.69
2022-09-10T21:04:39.517Z,93.37
2022-09-10T21:07:10.844Z,94.07
2022-09-10T21:09:42.148Z,93.93
2022-09-10T21:12:13.537Z,94.03
2022-09-10T21:14:44.890Z,94.07
2022-09-10T21:17:16.235Z,93.83
2022-09-10T21:19:47.856Z,93.43
2022-09-10T21:22:20.210Z,94.32
2022-09-10T21:24:51.662Z,94.31
2022-09-10T21:27:23.984Z,94.35
2022-09-10T21:29:55.345Z,94.39
2022-09-10T21:32:26.671Z,94.56
2022-09-10T21:34:59.267Z,94.45
2022-09-10T21:37:30.808Z,94.50
2022-09-10T21:40:03.003Z,94.66
2022-09-10T21:42:34.338Z,94.73
2022-09-10T21:45:07.000Z,94.71
2022-09-10T21:47:38.777Z,94.86
2022-09-10T21:50:10.189Z,94.80
2022-09-10T21:52:41.538Z,95.15
2022-09-10T21:55:12.935Z,95.08
2022-09-10T21:57:44.349Z,95.36
2022-09-10T22:00:16.165Z,94.86
2022-09-10T22:02:49.464Z,94.80
2022-09-10T22:05:21.343Z,94.51
2022-09-10T22:07:52.959Z,94.09
2022-09-10T22:10:24.271Z,94.38
2022-09-10T22:12:56.761Z,94.67
2022-09-10T22:15:28.232Z,94.45
2022-09-10T22:17:59.880Z,94.39
2022-09-10T22:20:33.474Z,94.93
2022-09-10T22:23:04.860Z,94.79
2022-09-10T22:25:36.228Z,94.79
2022-09-10T22:28:07.569Z,94.98
2022-09-10T22:30:38.833Z,94.50
2022-09-10T22:33:10.252Z,94.60
2022-09-10T22:35:41.666Z,94.77
2022-09-10T22:38:16.852Z,94.75
2022-09-10T22:40:51.322Z,95.08
2022-09-10T22:43:22.652Z,95.50
2022-09-10T22:45:54.084Z,96.12
2022-09-10T22:48:25.474Z,96.59
2022-09-10T22:50:56.842Z,96.93
2022-09-10T22:53:28.266Z,97.07
2022-09-10T22:56:00.940Z,97.24
2022-09-10T22:58:33.163Z,97.60
2022-09-10T23:01:15.947Z,97.50
2022-09-10T23:03:48.515Z,97.95
2022-09-10T23:06:22.620Z,98.04
2022-09-10T23:08:56.817Z,97.53
2022-09-10T23:11:30.453Z,97.52
2022-09-10T23:14:05.543Z,97.58
2022-09-10T23:16:39.710Z,97.12
2022-09-10T23:19:13.608Z,96.93
2022-09-10T23:21:47.376Z,96.78
2022-09-10T23:24:21.848Z,96.79
2022-09-10T23:26:53.768Z,96.55
2022-09-10T23:29:25.287Z,96.05
2022-09-10T23:31:56.601Z,95.86
2022-09-10T23:34:28.002Z,96.10
2022-09-10T23:36:59.361Z,95.43
2022-09-10T23:39:30.695Z,95.50
2022-09-10T23:42:02.243Z,95.20
2022-09-10T23:44:35.017Z,95.18
2022-09-10T23:47:06.931Z,95.17
2022-09-10T23:49:38.340Z,95.04
2022-09-10T23:52:09.860Z,95.43
2022-09-10T23:54:41.676Z,95.30
2022-09-10T23:57:13.156Z,95.37
2022-09-10T23:59:44.740Z,94.77
